createdAt,value
2017-07-17T14:27:21.933Z,80.94
2017-07-17T14:28:12.373Z,80.31
2017-07-17T14:29:12.919Z,80.04
2017-07-17T14:30:12.411Z,80.82
2017-07-17T14:31:12.426Z,80.62
2017-07-17T14:32:12.684Z,80.02
2017-07-17T14:33:12.358Z,80.47
2017-07-17T14:34:12.870Z,80.55
2017-07-17T14:35:12.617Z,79.68
2017-07-17T14:36:12.565Z,80.84
2017-07-17T14:37:12.627Z,79.28
2017-07-17T14:38:12.688Z,80.25
2017-07-17T14:39:12.904Z,80.88
2017-07-17T14:40:12.614Z,80.04
2017-07-17T14:41:12.635Z,79.69
2017-07-17T14:42:12.353Z,80.15
2017-07-17T14:43:12.406Z,80.80
2017-07-17T14:44:13.000Z,80.48
2017-07-17T14:45:12.346Z,81.76
2017-07-17T14:46:12.388Z,81.32
2017-07-17T14:47:12.627Z,80.17
2017-07-17T14:48:12.503Z,79.86
2017-07-17T14:49:12.702Z,78.15
2017-07-17T14:50:12.406Z,78.68
2017-07-17T14:51:12.701Z,79.35
2017-07-17T14:52:12.614Z,79.19
2017-07-17T14:53:12.741Z,78.63
2017-07-17T14:54:12.972Z,79.55
2017-07-17T14:55:12.677Z,78.37
2017-07-17T14:56:12.583Z,78.82
2017-07-17T14:57:12.620Z,78.45
2017-07-17T14:58:12.649Z,78.31
2017-07-17T14:59:12.961Z,79.09
2017-07-17T15:00:12.841Z,80.04
2017-07-17T15:01:12.517Z,79.92
2017-07-17T15:02:13.153Z,79.94
2017-07-17T15:03:13.013Z,80.01
2017-07-17T15:04:12.973Z,79.08
2017-07-17T15:05:12.457Z,79.18
2017-07-17T15:06:12.439Z,79.54
2017-07-17T15:07:12.453Z,80.14
2017-07-17T15:08:12.686Z,80.63
2017-07-17T15:09:12.991Z,79.71
2017-07-17T15:10:12.811Z,78.77
2017-07-17T15:11:12.698Z,79.29
2017-07-17T15:12:12.708Z,78.54
2017-07-17T15:13:13.137Z,78.61
2017-07-17T15:14:12.967Z,79.32
2017-07-17T15:15:12.677Z,79.94
2017-07-17T15:16:12.706Z,78.34
2017-07-17T15:17:13.015Z,78.67
2017-07-17T15:18:12.522Z,78.38
2017-07-17T15:19:13.053Z,77.13
2017-07-17T15:20:12.490Z,77.73
2017-07-17T15:21:12.485Z,77.75
2017-07-17T15:22:12.502Z,76.34
2017-07-17T15:23:12.560Z,76.74
2017-07-17T15:24:12.515Z,76.74
2017-07-17T15:26:52.478Z,75.41
2017-07-17T15:27:22.054Z,75.64
2017-07-17T15:28:12.387Z,76.01
2017-07-17T15:29:12.790Z,75.05
2017-07-17T15:30:12.452Z,74.56
2017-07-17T15:31:12.411Z,75.20
2017-07-17T15:32:12.565Z,75.59
2017-07-17T15:33:12.413Z,75.50
2017-07-17T15:34:12.965Z,75.35
2017-07-17T15:35:12.979Z,76.13
2017-07-17T15:36:12.678Z,75.76
2017-07-17T15:37:12.640Z,77.14
2017-07-17T15:38:12.726Z,75.92
2017-07-17T15:39:12.726Z,76.97
2017-07-17T15:40:12.918Z,77.08
2017-07-17T15:41:12.418Z,76.22
2017-07-17T15:42:12.756Z,76.96
2017-07-17T15:43:16.111Z,77.46
2017-07-17T15:44:12.424Z,77.37
2017-07-17T15:45:12.991Z,77.64
2017-07-17T15:46:12.645Z,78.28
2017-07-17T15:47:12.565Z,78.24
2017-07-17T15:48:12.798Z,78.09
2017-07-17T15:49:12.609Z,77.11
2017-07-17T15:50:12.728Z,77.64
2017-07-17T15:51:12.544Z,77.43
2017-07-17T15:52:12.674Z,76.42
2017-07-17T15:53:12.868Z,77.36
2017-07-17T15:54:12.738Z,76.55
2017-07-17T15:55:12.986Z,76.83
2017-07-17T15:56:12.733Z,77.06
2017-07-17T15:57:12.756Z,77.35
2017-07-17T15:58:12.789Z,77.56
2017-07-17T15:59:12.527Z,77.26
2017-07-17T16:00:13.068Z,77.99
2017-07-17T16:01:12.583Z,77.86
2017-07-17T16:02:12.506Z,78.22
2017-07-17T16:03:12.739Z,78.06
2017-07-17T16:04:12.550Z,76.94
2017-07-17T16:05:12.782Z,78.25
2017-07-17T16:06:12.522Z,78.27
2017-07-17T16:07:12.775Z,76.08
2017-07-17T16:08:12.735Z,76.31
2017-07-17T16:09:12.725Z,77.58
2017-07-17T16:10:17.959Z,75.61
2017-07-17T16:11:12.523Z,77.33
2017-07-17T16:12:12.753Z,77.12
2017-07-17T16:13:12.791Z,77.08
2017-07-17T16:14:12.714Z,78.08
2017-07-17T16:15:13.057Z,77.76
2017-07-17T16:16:12.919Z,76.83
2017-07-17T16:17:12.874Z,77.03
2017-07-17T16:18:12.530Z,76.30
2017-07-17T16:19:12.587Z,77.12
2017-07-17T16:20:13.118Z,76.46
2017-07-17T16:21:13.134Z,76.13
2017-07-17T16:22:12.583Z,75.85
2017-07-17T16:23:12.654Z,76.20
2017-07-17T16:24:12.529Z,75.94
2017-07-17T16:25:13.034Z,75.33
2017-07-17T16:26:12.832Z,75.15
2017-07-17T16:27:12.761Z,75.40
2017-07-17T16:28:12.857Z,76.33
2017-07-17T16:29:12.750Z,76.12
2017-07-17T16:30:13.192Z,76.52
2017-07-17T16:31:12.907Z,76.43
2017-07-17T16:32:12.776Z,76.06
2017-07-17T16:33:12.615Z,76.58
2017-07-17T16:34:12.625Z,76.51
2017-07-17T16:35:13.167Z,76.98
2017-07-17T16:36:12.599Z,77.72
2017-07-17T16:37:12.632Z,77.90
2017-07-17T16:38:12.601Z,77.73
2017-07-17T16:39:12.668Z,77.43
2017-07-17T16:40:12.936Z,76.59
2017-07-17T16:41:12.568Z,76.00
2017-07-17T16:42:12.808Z,76.20
2017-07-17T16:43:12.851Z,76.33
2017-07-17T16:44:12.892Z,76.85
2017-07-17T16:45:13.074Z,76.27
2017-07-17T16:46:12.848Z,76.46
2017-07-17T16:47:12.840Z,76.71
2017-07-17T16:48:12.905Z,76.63
2017-07-17T16:49:12.881Z,76.90
2017-07-17T16:50:13.135Z,77.13
2017-07-17T16:51:12.660Z,77.62
2017-07-17T16:52:12.699Z,77.18
2017-07-17T16:53:12.714Z,76.90
2017-07-17T16:54:12.642Z,76.63
2017-07-17T16:55:12.952Z,77.04
2017-07-17T16:56:12.642Z,76.85
2017-07-17T16:57:12.705Z,76.81
2017-07-17T16:58:12.708Z,77.14
2017-07-17T16:59:12.870Z,77.64
2017-07-17T17:00:13.154Z,77.40
2017-07-17T17:01:12.863Z,77.39
2017-07-17T17:02:12.960Z,76.86
2017-07-17T17:03:12.989Z,76.74
2017-07-17T17:04:13.077Z,77.15
2017-07-17T17:05:13.269Z,76.54
2017-07-17T17:06:12.967Z,77.78
2017-07-17T17:07:12.700Z,76.28
2017-07-17T17:08:12.737Z,76.28
2017-07-17T17:09:12.726Z,75.93
2017-07-17T17:10:13.233Z,76.35
2017-07-17T17:11:12.667Z,76.67
2017-07-17T17:12:12.694Z,76.48
2017-07-17T17:13:12.732Z,76.24
2017-07-17T17:14:12.722Z,76.85
2017-07-17T17:15:13.270Z,76.21
2017-07-17T17:15:19.410Z,76.21
2017-07-17T17:16:12.689Z,76.35
2017-07-17T17:17:12.923Z,76.22
2017-07-17T17:18:13.059Z,75.70
2017-07-17T17:19:12.775Z,77.11
2017-07-17T17:20:12.986Z,76.66
2017-07-17T17:21:12.715Z,77.74
2017-07-17T17:22:12.965Z,76.83
2017-07-17T17:23:12.943Z,76.07
2017-07-17T17:24:12.929Z,76.62
2017-07-17T17:25:13.221Z,75.93
2017-07-17T17:26:13.013Z,75.80
2017-07-17T17:27:12.938Z,77.04
2017-07-17T17:28:12.975Z,76.29
2017-07-17T17:29:13.013Z,76.71
2017-07-17T17:30:13.285Z,76.33
2017-07-17T17:31:12.738Z,76.57
2017-07-17T17:32:12.870Z,76.18
2017-07-17T17:33:12.829Z,76.77
2017-07-17T17:34:12.800Z,76.52
2017-07-17T17:35:13.302Z,76.26
2017-07-17T17:36:12.801Z,75.88
2017-07-17T17:37:12.817Z,76.06
2017-07-17T17:38:12.955Z,76.07
2017-07-17T17:39:12.827Z,76.44
2017-07-17T17:40:13.116Z,76.64
2017-07-17T17:41:12.817Z,76.95
2017-07-17T17:42:12.995Z,77.76
2017-07-17T17:43:13.065Z,77.01
2017-07-17T17:44:13.045Z,77.96
2017-07-17T17:45:13.309Z,76.24
2017-07-17T17:46:12.998Z,76.05
2017-07-17T17:47:13.463Z,76.20
2017-07-17T17:48:12.840Z,75.53
2017-07-17T17:49:12.869Z,75.36
2017-07-17T17:50:13.348Z,75.93
2017-07-17T17:51:12.805Z,76.85
2017-07-17T17:52:12.790Z,76.99
2017-07-17T17:53:12.793Z,76.87
2017-07-17T17:54:12.793Z,76.93
2017-07-17T17:55:13.288Z,76.94
2017-07-17T17:56:13.087Z,77.31
2017-07-17T17:57:13.073Z,77.33
2017-07-17T17:58:13.191Z,76.67
2017-07-17T17:59:13.090Z,77.40
2017-07-17T18:00:13.366Z,77.85
2017-07-17T18:01:13.093Z,77.74
2017-07-17T18:02:13.082Z,77.18
2017-07-17T18:03:13.151Z,77.38
2017-07-17T18:04:13.038Z,77.64
2017-07-17T18:05:13.395Z,77.85
2017-07-17T18:06:12.913Z,78.20
2017-07-17T18:07:12.899Z,77.48
2017-07-17T18:08:12.981Z,77.59
2017-07-17T18:09:12.917Z,77.00
2017-07-17T18:10:13.208Z,77.68
2017-07-17T18:11:12.851Z,78.08
2017-07-17T18:12:13.067Z,77.06
2017-07-17T18:13:13.158Z,77.61
2017-07-17T18:14:13.209Z,77.43
2017-07-17T18:15:13.353Z,77.92
2017-07-17T18:16:13.074Z,78.56
2017-07-17T18:17:13.117Z,77.76
2017-07-17T18:18:13.111Z,77.49
2017-07-17T18:19:13.131Z,77.79
2017-07-17T18:20:13.167Z,78.04
2017-07-17T18:21:13.124Z,77.51
2017-07-17T18:22:12.882Z,77.06
2017-07-17T18:23:12.915Z,77.24
2017-07-17T18:24:12.953Z,77.12
2017-07-17T18:25:12.985Z,77.46
2017-07-17T18:26:12.923Z,77.41
2017-07-17T18:27:12.956Z,77.54
2017-07-17T18:28:12.977Z,77.87
2017-07-17T18:29:12.894Z,77.89
2017-07-17T18:30:13.221Z,78.04
2017-07-17T18:31:13.095Z,76.72
2017-07-17T18:32:13.172Z,76.95
2017-07-17T18:33:13.140Z,76.81
2017-07-17T18:34:13.229Z,77.58
2017-07-17T18:35:13.230Z,76.84
2017-07-17T18:36:13.257Z,77.05
2017-07-17T18:37:13.107Z,77.53
2017-07-17T18:38:13.168Z,77.31
2017-07-17T18:39:12.953Z,77.30
2017-07-17T18:40:12.994Z,77.09
2017-07-17T18:41:12.922Z,77.44
2017-07-17T18:42:12.993Z,77.69
2017-07-17T18:43:12.982Z,77.85
2017-07-17T18:44:13.013Z,77.82
2017-07-17T18:45:13.048Z,77.84
2017-07-17T18:46:13.022Z,77.53
2017-07-17T18:47:13.017Z,78.08
2017-07-17T18:48:13.146Z,77.47
2017-07-17T18:49:13.187Z,77.80
2017-07-17T18:50:13.593Z,77.93
2017-07-17T18:51:13.191Z,78.42
2017-07-17T18:52:13.209Z,78.94
2017-07-17T18:53:13.238Z,79.33
2017-07-17T18:54:13.166Z,79.50
2017-07-17T18:55:13.254Z,79.04
2017-07-17T18:56:13.307Z,79.01
2017-07-17T18:57:13.038Z,78.45
2017-07-17T18:58:13.062Z,78.97
2017-07-17T18:59:13.009Z,78.99
2017-07-17T19:00:13.091Z,79.47
2017-07-17T19:01:13.041Z,79.74
2017-07-17T19:02:12.971Z,79.83
2017-07-17T19:03:12.987Z,79.61
2017-07-17T19:04:13.416Z,79.40
2017-07-17T19:05:13.241Z,79.13
2017-07-17T19:06:13.273Z,79.68
2017-07-17T19:07:13.201Z,80.01
2017-07-17T19:08:13.256Z,79.52
2017-07-17T19:09:13.299Z,80.16
2017-07-17T19:10:13.396Z,79.98
2017-07-17T19:11:13.293Z,80.51
2017-07-17T19:12:13.240Z,80.61
2017-07-17T19:13:13.269Z,80.55
2017-07-17T19:14:13.705Z,80.44
2017-07-17T19:15:13.031Z,80.64
2017-07-17T19:16:13.561Z,79.59
2017-07-17T19:17:13.084Z,80.58
2017-07-17T19:18:13.111Z,80.53
2017-07-17T19:19:13.050Z,80.47
2017-07-17T19:20:13.077Z,81.09
2017-07-17T19:21:13.698Z,80.57
2017-07-17T19:22:13.071Z,80.95
2017-07-17T19:23:13.290Z,81.37
2017-07-17T19:24:13.398Z,81.33
2017-07-17T19:25:13.585Z,81.04
2017-07-17T19:26:13.646Z,80.94
2017-07-17T19:27:13.265Z,80.73
2017-07-17T19:28:13.333Z,81.16
2017-07-17T19:29:13.654Z,81.17
2017-07-17T19:30:13.072Z,81.59
2017-07-17T19:31:13.079Z,81.75
2017-07-17T19:32:13.083Z,81.71
2017-07-17T19:33:13.095Z,82.18
2017-07-17T19:34:13.102Z,82.23
2017-07-17T19:35:13.103Z,81.75
2017-07-17T19:36:13.205Z,81.74
2017-07-17T19:37:13.180Z,81.22
2017-07-17T19:38:13.081Z,82.05
2017-07-17T19:39:13.493Z,82.51
2017-07-17T19:40:13.416Z,82.43
2017-07-17T19:41:13.668Z,82.85
2017-07-17T19:42:13.328Z,82.85
2017-07-17T19:43:13.507Z,82.78
2017-07-17T19:44:13.663Z,82.76
2017-07-17T19:45:13.430Z,82.07
2017-07-17T19:46:13.708Z,82.28
2017-07-17T19:47:13.144Z,82.64
2017-07-17T19:48:13.444Z,82.16
2017-07-17T19:49:13.197Z,82.05
2017-07-17T19:50:13.132Z,82.42
2017-07-17T19:51:13.175Z,82.44
2017-07-17T19:52:13.200Z,82.48
2017-07-17T19:53:13.223Z,82.22
2017-07-17T19:54:13.163Z,82.60
2017-07-17T19:55:13.431Z,82.54
2017-07-17T19:56:13.674Z,82.68
2017-07-17T19:57:13.348Z,82.66
2017-07-17T19:58:13.580Z,82.74
2017-07-17T19:59:13.690Z,82.61
2017-07-17T20:00:13.421Z,82.83
2017-07-17T20:01:13.686Z,83.04
2017-07-17T20:02:13.408Z,82.94
2017-07-17T20:03:13.459Z,82.79
2017-07-17T20:04:13.435Z,82.89
2017-07-17T20:05:13.170Z,82.71
2017-07-17T20:06:13.242Z,82.50
2017-07-17T20:07:13.227Z,82.91
2017-07-17T20:08:13.284Z,83.27
2017-07-17T20:09:13.242Z,83.12
2017-07-17T20:10:13.258Z,82.73
2017-07-17T20:11:13.528Z,83.14
2017-07-17T20:12:13.273Z,83.47
2017-07-17T20:13:13.271Z,82.15
2017-07-17T20:14:13.567Z,83.64
2017-07-17T20:15:13.270Z,83.79
2017-07-17T20:16:13.700Z,84.14
2017-07-17T20:17:13.531Z,83.69
2017-07-17T20:18:13.545Z,83.63
2017-07-17T20:19:13.454Z,83.73
2017-07-17T20:20:13.482Z,83.93
2017-07-17T20:21:13.715Z,84.22
2017-07-17T20:22:13.542Z,83.95
2017-07-17T20:23:13.266Z,84.07
2017-07-17T20:24:13.263Z,83.79
2017-07-17T20:25:13.242Z,83.53
2017-07-17T20:26:13.766Z,83.76
2017-07-17T20:27:13.250Z,84.19
2017-07-17T20:28:13.284Z,84.19
2017-07-17T20:29:14.027Z,84.04
2017-07-17T20:30:13.311Z,83.88
2017-07-17T20:31:13.546Z,84.02
2017-07-17T20:32:13.302Z,84.30
2017-07-17T20:33:13.469Z,84.38
2017-07-17T20:34:13.479Z,84.52
2017-07-17T20:35:13.455Z,84.75
2017-07-17T20:36:13.811Z,85.10
2017-07-17T20:37:13.565Z,84.62
2017-07-17T20:38:13.512Z,84.47
2017-07-17T20:39:13.565Z,84.58
2017-07-17T20:40:13.332Z,84.74
2017-07-17T20:41:13.806Z,83.59
2017-07-17T20:42:13.459Z,84.81
2017-07-17T20:43:13.476Z,84.62
2017-07-17T20:44:13.340Z,84.68
2017-07-17T20:45:13.330Z,85.24
2017-07-17T20:46:13.391Z,85.89
2017-07-17T20:47:13.339Z,85.78
2017-07-17T20:48:13.520Z,85.59
2017-07-17T20:49:13.570Z,85.34
2017-07-17T20:50:13.541Z,85.66
2017-07-17T20:51:13.649Z,85.84
2017-07-17T20:52:13.825Z,85.76
2017-07-17T20:53:13.538Z,85.98
2017-07-17T20:54:13.606Z,85.19
2017-07-17T20:55:13.596Z,85.12
2017-07-17T20:56:13.328Z,85.40
2017-07-17T20:57:14.007Z,85.16
2017-07-17T20:58:13.361Z,85.40
2017-07-17T20:59:13.328Z,85.71
2017-07-17T21:00:13.963Z,85.83
2017-07-17T21:01:13.338Z,85.81
2017-07-17T21:02:13.629Z,85.86
2017-07-17T21:03:13.360Z,85.53
2017-07-17T21:04:13.608Z,85.72
2017-07-17T21:05:13.565Z,85.50
2017-07-17T21:06:13.601Z,85.35
2017-07-17T21:07:13.955Z,85.52
2017-07-17T21:08:13.634Z,85.63
2017-07-17T21:09:13.645Z,85.72
2017-07-17T21:10:13.604Z,85.71
2017-07-17T21:11:13.624Z,85.47
2017-07-17T21:12:13.863Z,85.61
2017-07-17T21:13:13.393Z,85.83
2017-07-17T21:14:13.438Z,86.08
2017-07-17T21:15:13.887Z,86.21
2017-07-17T21:16:13.442Z,86.18
2017-07-17T21:17:13.905Z,86.39
2017-07-17T21:18:13.450Z,86.67
2017-07-17T21:19:13.503Z,86.70
2017-07-17T21:20:13.461Z,86.65
2017-07-17T21:21:13.491Z,86.53
2017-07-17T21:22:13.925Z,86.74
2017-07-17T21:23:13.653Z,86.73
2017-07-17T21:24:13.789Z,86.56
2017-07-17T21:25:13.747Z,86.67
2017-07-17T21:26:13.668Z,86.93
2017-07-17T21:27:14.001Z,86.93
2017-07-17T21:28:13.621Z,87.38
2017-07-17T21:29:13.648Z,86.87
2017-07-17T21:30:13.990Z,87.12
2017-07-17T21:31:13.420Z,86.91
2017-07-17T21:32:13.975Z,86.93
2017-07-17T21:33:13.510Z,86.48
2017-07-17T21:34:13.444Z,86.68
2017-07-17T21:35:13.473Z,86.81
2017-07-17T21:36:13.505Z,87.18
2017-07-17T21:37:13.478Z,87.17
2017-07-17T21:38:13.487Z,87.16
2017-07-17T21:39:13.726Z,86.77
2017-07-17T21:40:13.666Z,87.38
2017-07-17T21:41:13.717Z,87.52
2017-07-17T21:42:13.725Z,87.11
2017-07-17T21:43:13.951Z,87.61
2017-07-17T21:44:13.693Z,87.26
2017-07-17T21:45:13.678Z,87.19
2017-07-17T21:46:13.718Z,87.24
2017-07-17T21:47:13.557Z,87.18
2017-07-17T21:48:14.001Z,87.20
2017-07-17T21:49:13.633Z,87.00
2017-07-17T21:50:13.470Z,87.13
2017-07-17T21:51:13.549Z,87.33
2017-07-17T21:52:13.500Z,87.50
2017-07-17T21:53:13.835Z,87.61
2017-07-17T21:54:13.522Z,87.52
2017-07-17T21:55:13.730Z,87.62
2017-07-17T21:56:13.779Z,87.43
2017-07-17T21:57:13.774Z,87.52
2017-07-17T21:58:14.000Z,87.48
2017-07-17T21:59:13.723Z,87.58
2017-07-17T22:00:13.771Z,87.79
2017-07-17T22:01:13.707Z,87.72
2017-07-17T22:02:13.742Z,87.58
2017-07-17T22:03:14.036Z,87.69
2017-07-17T22:04:13.604Z,87.88
2017-07-17T22:05:13.513Z,87.65
2017-07-17T22:06:13.603Z,87.90
2017-07-17T22:07:13.566Z,88.18
2017-07-17T22:08:13.811Z,88.00
2017-07-17T22:09:13.582Z,87.76
2017-07-17T22:10:13.535Z,87.67
2017-07-17T22:11:13.788Z,87.92
2017-07-17T22:12:13.722Z,87.75
2017-07-17T22:13:14.064Z,88.06
2017-07-17T22:14:13.794Z,87.96
2017-07-17T22:15:13.738Z,88.02
2017-07-17T22:16:13.797Z,88.19
2017-07-17T22:17:13.743Z,87.91
2017-07-17T22:18:14.214Z,87.92
2017-07-17T22:19:13.981Z,87.82
2017-07-17T22:20:13.634Z,87.83
2017-07-17T22:21:13.576Z,87.79
2017-07-17T22:22:13.631Z,87.79
2017-07-17T22:23:14.108Z,87.55
2017-07-17T22:24:13.639Z,87.54
2017-07-17T22:25:13.604Z,88.32
2017-07-17T22:26:13.660Z,88.17
2017-07-17T22:27:13.583Z,88.25
2017-07-17T22:28:14.110Z,88.64
2017-07-17T22:29:13.840Z,88.13
2017-07-17T22:30:14.182Z,88.15
2017-07-17T22:31:13.909Z,88.42
2017-07-17T22:32:13.849Z,88.33
2017-07-17T22:33:14.096Z,88.07
2017-07-17T22:34:13.852Z,88.17
2017-07-17T22:35:13.871Z,87.85
2017-07-17T22:36:13.623Z,88.73
2017-07-17T22:37:13.670Z,88.38
2017-07-17T22:38:14.180Z,88.22
2017-07-17T22:39:13.603Z,87.84
2017-07-17T22:40:13.641Z,88.57
2017-07-17T22:41:13.671Z,88.34
2017-07-17T22:42:13.698Z,88.04
2017-07-17T22:43:13.993Z,88.21
2017-07-17T22:44:13.668Z,88.22
2017-07-17T22:45:14.154Z,88.90
2017-07-17T22:46:13.995Z,88.93
2017-07-17T22:47:13.925Z,88.84
2017-07-17T22:48:14.268Z,88.73
2017-07-17T22:49:13.906Z,88.91
2017-07-17T22:50:13.853Z,88.77
2017-07-17T22:51:13.892Z,88.47
2017-07-17T22:52:13.930Z,88.29
2017-07-17T22:53:14.170Z,88.45
2017-07-17T22:54:13.705Z,89.19
2017-07-17T22:55:13.743Z,88.88
2017-07-17T22:56:13.674Z,88.36
2017-07-17T22:57:13.728Z,88.96
2017-07-17T22:58:14.008Z,89.08
2017-07-17T22:59:13.734Z,88.92
2017-07-17T23:00:14.159Z,89.36
2017-07-17T23:01:13.888Z,89.27
2017-07-17T23:02:13.929Z,89.49
2017-07-17T23:03:14.195Z,89.49
2017-07-17T23:04:13.953Z,89.20
2017-07-17T23:05:13.995Z,89.10
2017-07-17T23:06:14.032Z,89.42
2017-07-17T23:07:13.968Z,89.64
2017-07-17T23:08:14.222Z,89.96
2017-07-17T23:09:13.742Z,89.29
2017-07-17T23:10:13.777Z,89.33
2017-07-17T23:11:13.711Z,89.32
2017-07-17T23:12:13.734Z,89.51
2017-07-17T23:13:13.761Z,89.48
2017-07-17T23:14:13.734Z,89.43
2017-07-17T23:15:14.064Z,89.81
2017-07-17T23:16:13.796Z,89.58
2017-07-17T23:17:13.919Z,89.19
2017-07-17T23:18:13.952Z,89.84
2017-07-17T23:19:13.984Z,90.45
2017-07-17T23:20:14.014Z,89.90
2017-07-17T23:21:13.935Z,89.81
2017-07-17T23:22:13.972Z,89.93
2017-07-17T23:23:14.325Z,90.46
2017-07-17T23:24:13.965Z,90.75
2017-07-17T23:25:13.787Z,90.28
2017-07-17T23:26:13.811Z,90.31
2017-07-17T23:27:13.849Z,90.67
2017-07-17T23:28:14.278Z,90.61
2017-07-17T23:29:13.834Z,90.80
2017-07-17T23:30:13.789Z,90.42
2017-07-17T23:31:13.806Z,90.29
2017-07-17T23:32:13.834Z,90.48
2017-07-17T23:33:14.067Z,90.33
2017-07-17T23:34:13.989Z,89.90
2017-07-17T23:35:14.022Z,90.42
2017-07-17T23:36:14.049Z,90.49
2017-07-17T23:37:14.075Z,90.09
2017-07-17T23:38:14.111Z,90.28
2017-07-17T23:39:14.040Z,90.46
2017-07-17T23:40:14.077Z,90.45
2017-07-17T23:41:14.128Z,90.35
2017-07-17T23:42:13.853Z,90.32
2017-07-17T23:43:14.397Z,90.24
2017-07-17T23:44:13.822Z,90.39
2017-07-17T23:45:13.850Z,90.38
2017-07-17T23:46:13.886Z,90.94
2017-07-17T23:47:13.812Z,90.64
2017-07-17T23:48:13.852Z,90.70
2017-07-17T23:49:13.874Z,90.97
2017-07-17T23:50:13.822Z,90.99
2017-07-17T23:51:14.160Z,90.83
2017-07-17T23:52:14.082Z,90.77
2017-07-17T23:53:14.099Z,90.74
2017-07-17T23:54:14.022Z,90.35
2017-07-17T23:55:14.076Z,90.49
2017-07-17T23:56:14.051Z,90.33
2017-07-17T23:57:14.088Z,89.78
2017-07-17T23:58:14.126Z,89.12
2017-07-17T23:59:13.877Z,87.58
